sensor_id;sensor_type;location;lat;lon;timestamp;pressure;altitude;pressure_sealevel;temperature;humidity
39267;BME280;24967;51.154;13.812;2022-09-02T00:00:01;100012.78;;;13.90;72.27
39267;BME280;24967;51.154;13.812;2022-09-02T00:02:31;100019.97;;;13.90;72.52
39267;BME280;24967;51.154;13.812;2022-09-02T00:04:59;100013.47;;;13.92;72.44
39267;BME280;24967;51.154;13.812;2022-09-02T00:07:26;100015.47;;;13.90;72.71
39267;BME280;24967;51.154;13.812;2022-09-02T00:09:52;100009.59;;;13.87;72.67
39267;BME280;24967;51.154;13.812;2022-09-02T00:12:19;100013.81;;;13.89;72.53
39267;BME280;24967;51.154;13.812;2022-09-02T00:14:46;100011.44;;;13.86;72.22
39267;BME280;24967;51.154;13.812;2022-09-02T00:17:13;100004.72;;;13.82;72.03
39267;BME280;24967;51.154;13.812;2022-09-02T00:19:39;100003.22;;;13.80;72.25
39267;BME280;24967;51.154;13.812;2022-09-02T00:22:07;100002.56;;;13.78;71.82
39267;BME280;24967;51.154;13.812;2022-09-02T00:24:34;100005.53;;;13.74;71.80
39267;BME280;24967;51.154;13.812;2022-09-02T00:27:01;100006.38;;;13.75;71.90
39267;BME280;24967;51.154;13.812;2022-09-02T00:29:27;99998.69;;;13.72;71.66
39267;BME280;24967;51.154;13.812;2022-09-02T00:31:55;99992.66;;;13.70;71.77
39267;BME280;24967;51.154;13.812;2022-09-02T00:34:21;99993.81;;;13.67;71.59
39267;BME280;24967;51.154;13.812;2022-09-02T00:36:48;99992.13;;;13.66;71.53
39267;BME280;24967;51.154;13.812;2022-09-02T00:39:16;99988.25;;;13.61;71.80
39267;BME280;24967;51.154;13.812;2022-09-02T00:41:43;99992.09;;;13.58;71.40
39267;BME280;24967;51.154;13.812;2022-09-02T00:44:13;99989.59;;;13.57;71.54
39267;BME280;24967;51.154;13.812;2022-09-02T00:46:40;99992.56;;;13.54;71.44
39267;BME280;24967;51.154;13.812;2022-09-02T00:49:10;99993.41;;;13.54;71.51
39267;BME280;24967;51.154;13.812;2022-09-02T00:51:41;99996.03;;;13.46;71.96
39267;BME280;24967;51.154;13.812;2022-09-02T00:54:09;99996.00;;;13.38;71.72
39267;BME280;24967;51.154;13.812;2022-09-02T00:56:40;99999.13;;;13.33;71.82
39267;BME280;24967;51.154;13.812;2022-09-02T00:59:09;99991.28;;;13.32;71.37
39267;BME280;24967;51.154;13.812;2022-09-02T01:01:38;99994.78;;;13.32;70.89
39267;BME280;24967;51.154;13.812;2022-09-02T01:04:05;99998.19;;;13.24;71.33
39267;BME280;24967;51.154;13.812;2022-09-02T01:06:31;99996.47;;;13.15;71.78
39267;BME280;24967;51.154;13.812;2022-09-02T01:09:02;99993.72;;;13.07;71.98
39267;BME280;24967;51.154;13.812;2022-09-02T01:11:36;99997.72;;;13.03;72.33
39267;BME280;24967;51.154;13.812;2022-09-02T01:14:05;99997.56;;;13.04;72.43
39267;BME280;24967;51.154;13.812;2022-09-02T01:16:38;99998.09;;;13.08;72.69
39267;BME280;24967;51.154;13.812;2022-09-02T01:19:10;99997.91;;;13.10;72.40
39267;BME280;24967;51.154;13.812;2022-09-02T01:21:45;99998.94;;;13.09;72.69
39267;BME280;24967;51.154;13.812;2022-09-02T01:24:12;99994.09;;;13.12;72.77
39267;BME280;24967;51.154;13.812;2022-09-02T01:26:39;99991.44;;;13.12;72.58
39267;BME280;24967;51.154;13.812;2022-09-02T01:29:05;99985.13;;;13.13;72.61
39267;BME280;24967;51.154;13.812;2022-09-02T01:31:32;99984.94;;;13.15;72.61
39267;BME280;24967;51.154;13.812;2022-09-02T01:33:59;99985.97;;;13.14;72.55
39267;BME280;24967;51.154;13.812;2022-09-02T01:36:26;99987.94;;;13.12;72.69
39267;BME280;24967;51.154;13.812;2022-09-02T01:38:54;99989.91;;;13.10;72.91
39267;BME280;24967;51.154;13.812;2022-09-02T01:41:20;99987.94;;;13.12;72.92
39267;BME280;24967;51.154;13.812;2022-09-02T01:43:47;99991.53;;;13.02;73.34
39267;BME280;24967;51.154;13.812;2022-09-02T01:46:13;99994.72;;;13.06;73.67
39267;BME280;24967;51.154;13.812;2022-09-02T01:48:40;99984.56;;;13.10;73.80
39267;BME280;24967;51.154;13.812;2022-09-02T01:51:06;99987.09;;;13.11;73.78
39267;BME280;24967;51.154;13.812;2022-09-02T01:53:33;99981.25;;;13.07;74.39
39267;BME280;24967;51.154;13.812;2022-09-02T01:56:02;99979.09;;;13.11;74.22
39267;BME280;24967;51.154;13.812;2022-09-02T01:58:28;99978.63;;;13.16;74.19
39267;BME280;24967;51.154;13.812;2022-09-02T02:00:55;99979.16;;;13.19;73.95
39267;BME280;24967;51.154;13.812;2022-09-02T02:03:21;99983.50;;;13.20;73.86
39267;BME280;24967;51.154;13.812;2022-09-02T02:05:49;99974.47;;;13.21;73.94
39267;BME280;24967;51.154;13.812;2022-09-02T02:08:16;99972.28;;;13.17;74.24
39267;BME280;24967;51.154;13.812;2022-09-02T02:10:43;99967.63;;;13.19;74.15
39267;BME280;24967;51.154;13.812;2022-09-02T02:13:11;99969.63;;;13.17;74.10
39267;BME280;24967;51.154;13.812;2022-09-02T02:15:39;99971.47;;;13.16;73.77
39267;BME280;24967;51.154;13.812;2022-09-02T02:18:06;99968.56;;;13.10;74.12
39267;BME280;24967;51.154;13.812;2022-09-02T02:20:34;99964.69;;;13.04;74.17
39267;BME280;24967;51.154;13.812;2022-09-02T02:23:01;99972.34;;;12.99;74.27
39267;BME280;24967;51.154;13.812;2022-09-02T02:25:28;99971.50;;;12.98;73.82
39267;BME280;24967;51.154;13.812;2022-09-02T02:27:54;99971.50;;;12.98;73.77
39267;BME280;24967;51.154;13.812;2022-09-02T02:30:22;99978.97;;;12.95;73.82
39267;BME280;24967;51.154;13.812;2022-09-02T02:32:49;99963.94;;;12.94;74.10
39267;BME280;24967;51.154;13.812;2022-09-02T02:35:17;99973.94;;;12.92;73.83
39267;BME280;24967;51.154;13.812;2022-09-02T02:37:44;99966.78;;;12.92;73.85
39267;BME280;24967;51.154;13.812;2022-09-02T02:40:14;99966.41;;;12.87;73.39
39267;BME280;24967;51.154;13.812;2022-09-02T02:42:40;99972.06;;;12.84;73.41
39267;BME280;24967;51.154;13.812;2022-09-02T02:45:08;99974.84;;;12.82;73.37
39267;BME280;24967;51.154;13.812;2022-09-02T02:47:39;99968.03;;;12.80;73.56
39267;BME280;24967;51.154;13.812;2022-09-02T02:50:08;99972.38;;;12.81;73.30
39267;BME280;24967;51.154;13.812;2022-09-02T02:52:36;99961.31;;;12.76;73.58
39267;BME280;24967;51.154;13.812;2022-09-02T02:55:03;99966.94;;;12.73;73.59
39267;BME280;24967;51.154;13.812;2022-09-02T02:57:30;99959.94;;;12.72;73.45
39267;BME280;24967;51.154;13.812;2022-09-02T02:59:57;99961.78;;;12.71;73.52
39267;BME280;24967;51.154;13.812;2022-09-02T03:02:23;99965.22;;;12.64;73.48
39267;BME280;24967;51.154;13.812;2022-09-02T03:04:51;99969.19;;;12.59;73.35
39267;BME280;24967;51.154;13.812;2022-09-02T03:07:18;99966.66;;;12.58;73.43
39267;BME280;24967;51.154;13.812;2022-09-02T03:09:45;99960.25;;;12.51;73.70
39267;BME280;24967;51.154;13.812;2022-09-02T03:12:12;99964.78;;;12.50;73.69
39267;BME280;24967;51.154;13.812;2022-09-02T03:14:39;99964.06;;;12.48;73.96
39267;BME280;24967;51.154;13.812;2022-09-02T03:17:06;99958.22;;;12.45;73.76
39267;BME280;24967;51.154;13.812;2022-09-02T03:19:32;99957.38;;;12.44;73.49
39267;BME280;24967;51.154;13.812;2022-09-02T03:22:00;99961.47;;;12.38;73.30
39267;BME280;24967;51.154;13.812;2022-09-02T03:24:27;99962.28;;;12.03;73.46
39267;BME280;24967;51.154;13.812;2022-09-02T03:26:53;99966.69;;;12.12;73.46
39267;BME280;24967;51.154;13.812;2022-09-02T03:29:20;99963.81;;;12.06;74.77
39267;BME280;24967;51.154;13.812;2022-09-02T03:31:46;99965.34;;;12.08;74.34
39267;BME280;24967;51.154;13.812;2022-09-02T03:34:13;99963.69;;;12.07;74.80
39267;BME280;24967;51.154;13.812;2022-09-02T03:36:40;99957.03;;;12.11;74.53
39267;BME280;24967;51.154;13.812;2022-09-02T03:39:10;99968.09;;;12.17;74.42
39267;BME280;24967;51.154;13.812;2022-09-02T03:41:37;99958.56;;;12.14;74.53
39267;BME280;24967;51.154;13.812;2022-09-02T03:44:05;99962.78;;;12.17;74.38
39267;BME280;24967;51.154;13.812;2022-09-02T03:46:32;99964.56;;;12.16;74.38
39267;BME280;24967;51.154;13.812;2022-09-02T03:48:59;99959.41;;;12.14;74.59
39267;BME280;24967;51.154;13.812;2022-09-02T03:51:27;99959.41;;;12.14;74.59
39267;BME280;24967;51.154;13.812;2022-09-02T03:53:53;99951.72;;;12.11;74.68
39267;BME280;24967;51.154;13.812;2022-09-02T03:56:21;99956.75;;;12.14;74.74
39267;BME280;24967;51.154;13.812;2022-09-02T03:58:51;99955.22;;;12.12;74.34
39267;BME280;24967;51.154;13.812;2022-09-02T04:01:21;99957.75;;;12.13;74.69
39267;BME280;24967;51.154;13.812;2022-09-02T04:03:48;99950.72;;;12.12;74.58
39267;BME280;24967;51.154;13.812;2022-09-02T04:06:17;99952.72;;;12.10;74.52
39267;BME280;24967;51.154;13.812;2022-09-02T04:08:45;99948.34;;;12.09;74.42
39267;BME280;24967;51.154;13.812;2022-09-02T04:11:16;99950.34;;;12.07;74.53
39267;BME280;24967;51.154;13.812;2022-09-02T04:13:45;99953.44;;;12.03;74.57
39267;BME280;24967;51.154;13.812;2022-09-02T04:16:13;99955.41;;;12.01;74.61
39267;BME280;24967;51.154;13.812;2022-09-02T04:18:41;99951.25;;;11.98;74.58
39267;BME280;24967;51.154;13.812;2022-09-02T04:21:08;99945.91;;;11.98;74.81
39267;BME280;24967;51.154;13.812;2022-09-02T04:23:35;99959.25;;;11.98;74.67
39267;BME280;24967;51.154;13.812;2022-09-02T04:26:03;99960.22;;;11.97;74.59
39267;BME280;24967;51.154;13.812;2022-09-02T04:28:30;99957.72;;;11.96;74.59
39267;BME280;24967;51.154;13.812;2022-09-02T04:30:58;99951.38;;;11.97;74.54
39267;BME280;24967;51.154;13.812;2022-09-02T04:33:25;99952.38;;;11.96;74.29
39267;BME280;24967;51.154;13.812;2022-09-02T04:35:51;99954.47;;;11.92;74.41
39267;BME280;24967;51.154;13.812;2022-09-02T04:38:18;99950.84;;;11.93;74.38
39267;BME280;24967;51.154;13.812;2022-09-02T04:40:46;99952.69;;;11.93;74.24
39267;BME280;24967;51.154;13.812;2022-09-02T04:43:13;99960.50;;;11.94;74.24
39267;BME280;24967;51.154;13.812;2022-09-02T04:45:41;99954.34;;;11.94;74.26
39267;BME280;24967;51.154;13.812;2022-09-02T04:48:10;99957.31;;;11.90;74.32
39267;BME280;24967;51.154;13.812;2022-09-02T04:50:38;99953.41;;;11.85;74.41
39267;BME280;24967;51.154;13.812;2022-09-02T04:53:06;99954.25;;;11.85;74.91
39267;BME280;24967;51.154;13.812;2022-09-02T04:55:33;99950.31;;;11.80;75.18
39267;BME280;24967;51.154;13.812;2022-09-02T04:58:00;99955.22;;;11.84;75.03
39267;BME280;24967;51.154;13.812;2022-09-02T05:00:26;99954.25;;;11.85;75.45
39267;BME280;24967;51.154;13.812;2022-09-02T05:02:54;99957.44;;;11.89;75.65
39267;BME280;24967;51.154;13.812;2022-09-02T05:05:22;99957.53;;;11.97;75.29
39267;BME280;24967;51.154;13.812;2022-09-02T05:07:49;99965.25;;;12.00;75.47
39267;BME280;24967;51.154;13.812;2022-09-02T05:10:15;99965.09;;;12.02;75.71
39267;BME280;24967;51.154;13.812;2022-09-02T05:12:42;99961.97;;;12.06;75.32
39267;BME280;24967;51.154;13.812;2022-09-02T05:15:10;99963.69;;;12.07;75.46
39267;BME280;24967;51.154;13.812;2022-09-02T05:17:37;99967.16;;;12.08;75.65
39267;BME280;24967;51.154;13.812;2022-09-02T05:20:06;99959.00;;;12.09;76.12
39267;BME280;24967;51.154;13.812;2022-09-02T05:22:35;99958.88;;;12.11;76.53
39267;BME280;24967;51.154;13.812;2022-09-02T05:25:02;99962.91;;;12.15;76.91
39267;BME280;24967;51.154;13.812;2022-09-02T05:27:29;99961.78;;;12.18;77.15
39267;BME280;24967;51.154;13.812;2022-09-02T05:29:57;99962.59;;;12.18;77.76
39267;BME280;24967;51.154;13.812;2022-09-02T05:32:24;99963.44;;;12.19;78.45
39267;BME280;24967;51.154;13.812;2022-09-02T05:34:52;99957.44;;;12.17;79.95
39267;BME280;24967;51.154;13.812;2022-09-02T05:37:19;99968.16;;;12.25;79.75
39267;BME280;24967;51.154;13.812;2022-09-02T05:39:47;99959.56;;;12.31;80.86
39267;BME280;24967;51.154;13.812;2022-09-02T05:42:13;99958.53;;;12.86;82.45
39267;BME280;24967;51.154;13.812;2022-09-02T05:44:40;99953.19;;;13.56;85.61
39267;BME280;24967;51.154;13.812;2022-09-02T05:47:09;99963.47;;;14.35;85.42
39267;BME280;24967;51.154;13.812;2022-09-02T05:49:36;99946.75;;;15.15;82.11
39267;BME280;24967;51.154;13.812;2022-09-02T05:52:03;99943.19;;;15.95;78.18
39267;BME280;24967;51.154;13.812;2022-09-02T05:54:36;99940.13;;;16.75;74.05
39267;BME280;24967;51.154;13.812;2022-09-02T05:57:06;99941.84;;;17.44;69.92
39267;BME280;24967;51.154;13.812;2022-09-02T05:59:34;99942.53;;;17.97;69.29
39267;BME280;24967;51.154;13.812;2022-09-02T06:02:03;99948.00;;;18.61;65.59
39267;BME280;24967;51.154;13.812;2022-09-02T06:04:29;99943.03;;;19.08;62.92
39267;BME280;24967;51.154;13.812;2022-09-02T06:06:56;99947.78;;;19.34;61.72
39267;BME280;24967;51.154;13.812;2022-09-02T06:09:23;99943.56;;;19.25;60.81
39267;BME280;24967;51.154;13.812;2022-09-02T06:11:50;99949.16;;;18.95;60.41
39267;BME280;24967;51.154;13.812;2022-09-02T06:14:21;99948.78;;;18.55;61.34
39267;BME280;24967;51.154;13.812;2022-09-02T06:16:49;99948.13;;;17.95;63.92
39267;BME280;24967;51.154;13.812;2022-09-02T06:19:17;99950.25;;;17.40;67.06
39267;BME280;24967;51.154;13.812;2022-09-02T06:21:43;99944.69;;;17.42;66.08
39267;BME280;24967;51.154;13.812;2022-09-02T06:24:11;99955.00;;;16.86;67.75
39267;BME280;24967;51.154;13.812;2022-09-02T06:26:39;99954.00;;;17.02;67.17
39267;BME280;24967;51.154;13.812;2022-09-02T06:29:07;99959.28;;;16.72;70.16
39267;BME280;24967;51.154;13.812;2022-09-02T06:31:36;99954.81;;;16.64;70.73
39267;BME280;24967;51.154;13.812;2022-09-02T06:34:05;99956.63;;;16.64;70.10
39267;BME280;24967;51.154;13.812;2022-09-02T06:36:31;99960.53;;;16.61;71.03
39267;BME280;24967;51.154;13.812;2022-09-02T06:38:59;99961.25;;;16.55;73.10
39267;BME280;24967;51.154;13.812;2022-09-02T06:41:28;99958.56;;;16.55;71.03
39267;BME280;24967;51.154;13.812;2022-09-02T06:43:57;99956.97;;;16.46;71.79
39267;BME280;24967;51.154;13.812;2022-09-02T06:46:26;99961.97;;;16.49;71.95
39267;BME280;24967;51.154;13.812;2022-09-02T06:48:55;99959.66;;;16.46;74.55
39267;BME280;24967;51.154;13.812;2022-09-02T06:51:24;99960.75;;;16.52;72.77
39267;BME280;24967;51.154;13.812;2022-09-02T06:53:51;99957.59;;;16.71;71.71
39267;BME280;24967;51.154;13.812;2022-09-02T06:56:18;99955.81;;;16.63;71.83
39267;BME280;24967;51.154;13.812;2022-09-02T06:58:44;99958.50;;;16.63;70.21
39267;BME280;24967;51.154;13.812;2022-09-02T07:01:16;99962.78;;;16.72;70.09
39267;BME280;24967;51.154;13.812;2022-09-02T07:03:43;99964.34;;;16.67;72.42
39267;BME280;24967;51.154;13.812;2022-09-02T07:06:32;99970.19;;;16.70;72.32
39267;BME280;24967;51.154;13.812;2022-09-02T07:09:02;99964.84;;;16.70;71.48
39267;BME280;24967;51.154;13.812;2022-09-02T07:11:28;99969.00;;;16.96;71.00
39267;BME280;24967;51.154;13.812;2022-09-02T07:13:55;99970.22;;;17.08;69.76
39267;BME280;24967;51.154;13.812;2022-09-02T07:16:24;99966.91;;;17.21;69.04
39267;BME280;24967;51.154;13.812;2022-09-02T07:18:51;99975.44;;;17.39;67.28
39267;BME280;24967;51.154;13.812;2022-09-02T07:21:17;99966.56;;;17.69;67.48
39267;BME280;24967;51.154;13.812;2022-09-02T07:23:46;99967.47;;;17.76;67.57
39267;BME280;24967;51.154;13.812;2022-09-02T07:26:13;99973.34;;;17.94;66.64
39267;BME280;24967;51.154;13.812;2022-09-02T07:28:40;99973.59;;;18.14;65.06
39267;BME280;24967;51.154;13.812;2022-09-02T07:31:07;99971.47;;;18.46;63.67
39267;BME280;24967;51.154;13.812;2022-09-02T07:33:34;99969.72;;;18.60;62.68
39267;BME280;24967;51.154;13.812;2022-09-02T07:36:02;99972.31;;;18.89;61.51
39267;BME280;24967;51.154;13.812;2022-09-02T07:38:30;99966.97;;;18.96;60.02
39267;BME280;24967;51.154;13.812;2022-09-02T07:40:58;99965.94;;;19.18;59.35
39267;BME280;24967;51.154;13.812;2022-09-02T07:43:26;99966.88;;;19.39;62.03
39267;BME280;24967;51.154;13.812;2022-09-02T07:45:53;99968.22;;;19.56;60.23
39267;BME280;24967;51.154;13.812;2022-09-02T07:48:20;99969.19;;;19.70;56.00
39267;BME280;24967;51.154;13.812;2022-09-02T07:50:47;99969.66;;;19.87;57.61
39267;BME280;24967;51.154;13.812;2022-09-02T07:53:14;99962.22;;;19.89;57.61
39267;BME280;24967;51.154;13.812;2022-09-02T07:55:41;99972.38;;;19.94;56.71
39267;BME280;24967;51.154;13.812;2022-09-02T07:58:10;99961.03;;;20.05;55.36
39267;BME280;24967;51.154;13.812;2022-09-02T08:00:39;99972.06;;;20.10;54.53
39267;BME280;24967;51.154;13.812;2022-09-02T08:03:15;99960.03;;;20.19;54.47
39267;BME280;24967;51.154;13.812;2022-09-02T08:05:44;99959.81;;;20.21;54.44
39267;BME280;24967;51.154;13.812;2022-09-02T08:08:12;99958.19;;;20.33;54.46
39267;BME280;24967;51.154;13.812;2022-09-02T08:10:39;99962.03;;;20.52;54.18
39267;BME280;24967;51.154;13.812;2022-09-02T08:13:08;99963.50;;;20.68;51.48
39267;BME280;24967;51.154;13.812;2022-09-02T08:15:36;99955.41;;;20.68;52.54
39267;BME280;24967;51.154;13.812;2022-09-02T08:18:03;99961.03;;;20.73;52.27
39267;BME280;24967;51.154;13.812;2022-09-02T08:20:31;99961.66;;;20.88;50.31
39267;BME280;24967;51.154;13.812;2022-09-02T08:22:57;99952.06;;;20.99;50.50
39267;BME280;24967;51.154;13.812;2022-09-02T08:25:24;99945.22;;;21.10;49.67
39267;BME280;24967;51.154;13.812;2022-09-02T08:27:52;99959.97;;;21.07;49.62
39267;BME280;24967;51.154;13.812;2022-09-02T08:30:20;99955.59;;;21.19;51.09
39267;BME280;24967;51.154;13.812;2022-09-02T08:32:46;99956.63;;;21.38;50.91
39267;BME280;24967;51.154;13.812;2022-09-02T08:35:13;99948.66;;;21.63;50.39
39267;BME280;24967;51.154;13.812;2022-09-02T08:37:39;99949.09;;;21.67;47.05
39267;BME280;24967;51.154;13.812;2022-09-02T08:40:13;99954.66;;;21.72;46.34
39267;BME280;24967;51.154;13.812;2022-09-02T08:42:44;99946.91;;;21.89;49.28
39267;BME280;24967;51.154;13.812;2022-09-02T08:45:11;99948.50;;;22.10;49.51
39267;BME280;24967;51.154;13.812;2022-09-02T08:47:42;99948.28;;;22.18;46.60
39267;BME280;24967;51.154;13.812;2022-09-02T08:50:13;99941.97;;;22.31;46.42
39267;BME280;24967;51.154;13.812;2022-09-02T08:52:44;99944.22;;;22.34;45.72
39267;BME280;24967;51.154;13.812;2022-09-02T08:55:15;99936.69;;;22.43;45.05
39267;BME280;24967;51.154;13.812;2022-09-02T08:57:44;99941.44;;;22.47;44.08
39267;BME280;24967;51.154;13.812;2022-09-02T09:00:12;99935.91;;;22.29;42.77
39267;BME280;24967;51.154;13.812;2022-09-02T09:02:49;99930.50;;;22.29;43.61
39267;BME280;24967;51.154;13.812;2022-09-02T09:05:38;99934.28;;;22.14;45.39
39267;BME280;24967;51.154;13.812;2022-09-02T09:08:13;99929.72;;;22.22;43.44
39267;BME280;24967;51.154;13.812;2022-09-02T09:10:47;99927.88;;;22.47;45.46
39267;BME280;24967;51.154;13.812;2022-09-02T09:13:35;99924.53;;;22.77;44.48
39267;BME280;24967;51.154;13.812;2022-09-02T09:16:12;99923.81;;;22.95;44.21
39267;BME280;24967;51.154;13.812;2022-09-02T09:18:47;99919.00;;;22.65;43.24
39267;BME280;24967;51.154;13.812;2022-09-02T09:21:17;99914.03;;;22.62;43.02
39267;BME280;24967;51.154;13.812;2022-09-02T09:23:44;99919.69;;;22.60;42.99
39267;BME280;24967;51.154;13.812;2022-09-02T09:26:13;99916.16;;;22.53;43.74
39267;BME280;24967;51.154;13.812;2022-09-02T09:28:42;99915.09;;;22.61;44.31
39267;BME280;24967;51.154;13.812;2022-09-02T09:31:11;99908.44;;;22.57;44.22
39267;BME280;24967;51.154;13.812;2022-09-02T09:33:39;99905.13;;;22.55;44.03
39267;BME280;24967;51.154;13.812;2022-09-02T09:36:07;99908.72;;;22.74;42.55
39267;BME280;24967;51.154;13.812;2022-09-02T09:38:35;99912.94;;;22.70;42.96
39267;BME280;24967;51.154;13.812;2022-09-02T09:41:10;99918.22;;;22.58;42.35
39267;BME280;24967;51.154;13.812;2022-09-02T09:43:39;99902.53;;;22.35;43.85
39267;BME280;24967;51.154;13.812;2022-09-02T09:46:26;99914.50;;;22.21;42.98
39267;BME280;24967;51.154;13.812;2022-09-02T09:48:54;99908.50;;;22.18;43.32
39267;BME280;24967;51.154;13.812;2022-09-02T09:51:22;99904.25;;;21.91;44.16
39267;BME280;24967;51.154;13.812;2022-09-02T09:53:49;99907.53;;;21.93;45.63
39267;BME280;24967;51.154;13.812;2022-09-02T09:56:29;99905.78;;;22.18;45.54
39267;BME280;24967;51.154;13.812;2022-09-02T09:58:56;99907.06;;;22.09;45.25
39267;BME280;24967;51.154;13.812;2022-09-02T10:01:26;99904.38;;;22.03;43.63
39267;BME280;24967;51.154;13.812;2022-09-02T10:03:55;99911.13;;;21.87;44.39
39267;BME280;24967;51.154;13.812;2022-09-02T10:06:35;99902.25;;;21.66;44.10
39267;BME280;24967;51.154;13.812;2022-09-02T10:11:53;99898.78;;;21.53;45.75
39267;BME280;24967;51.154;13.812;2022-09-02T10:14:20;99891.44;;;21.60;45.47
39267;BME280;24967;51.154;13.812;2022-09-02T10:16:51;99890.31;;;21.81;44.95
39267;BME280;24967;51.154;13.812;2022-09-02T10:19:27;99894.25;;;21.91;45.54
39267;BME280;24967;51.154;13.812;2022-09-02T10:22:07;99882.84;;;21.83;44.88
39267;BME280;24967;51.154;13.812;2022-09-02T10:24:48;99884.34;;;21.65;44.89
39267;BME280;24967;51.154;13.812;2022-09-02T10:27:23;99889.00;;;21.52;45.54
39267;BME280;24967;51.154;13.812;2022-09-02T10:29:57;99880.09;;;21.24;46.15
39267;BME280;24967;51.154;13.812;2022-09-02T10:32:57;99889.28;;;21.10;44.33
39267;BME280;24967;51.154;13.812;2022-09-02T10:35:36;99885.91;;;21.35;46.25
39267;BME280;24967;51.154;13.812;2022-09-02T10:41:18;99878.53;;;21.68;45.99
39267;BME280;24967;51.154;13.812;2022-09-02T10:44:02;99879.78;;;21.72;43.81
39267;BME280;24967;51.154;13.812;2022-09-02T10:46:40;99879.31;;;21.82;43.82
39267;BME280;24967;51.154;13.812;2022-09-02T10:49:13;99871.56;;;21.86;44.68
39267;BME280;24967;51.154;13.812;2022-09-02T10:51:50;99879.03;;;21.97;44.78
39267;BME280;24967;51.154;13.812;2022-09-02T10:54:28;99873.59;;;21.97;45.04
39267;BME280;24967;51.154;13.812;2022-09-02T10:57:03;99878.22;;;21.90;45.07
39267;BME280;24967;51.154;13.812;2022-09-02T10:59:34;99869.06;;;21.84;44.95
39267;BME280;24967;51.154;13.812;2022-09-02T11:02:08;99869.38;;;21.63;45.19
39267;BME280;24967;51.154;13.812;2022-09-02T11:04:42;99868.75;;;21.67;45.67
39267;BME280;24967;51.154;13.812;2022-09-02T11:07:15;99856.16;;;21.86;45.14
39267;BME280;24967;51.154;13.812;2022-09-02T11:09:45;99861.69;;;22.05;44.83
39267;BME280;24967;51.154;13.812;2022-09-02T11:12:17;99868.66;;;22.26;44.47
39267;BME280;24967;51.154;13.812;2022-09-02T11:14:55;99867.56;;;22.33;43.16
39267;BME280;24967;51.154;13.812;2022-09-02T13:18:11;99777.34;;;21.31;43.05
39267;BME280;24967;51.154;13.812;2022-09-02T13:21:03;99765.09;;;21.99;40.92
39267;BME280;24967;51.154;13.812;2022-09-02T13:23:52;99755.03;;;22.37;39.29
39267;BME280;24967;51.154;13.812;2022-09-02T13:26:53;99756.72;;;22.75;39.17
39267;BME280;24967;51.154;13.812;2022-09-02T13:29:54;99751.50;;;22.99;37.85
39267;BME280;24967;51.154;13.812;2022-09-02T13:32:28;99747.75;;;23.18;37.70
39267;BME280;24967;51.154;13.812;2022-09-02T13:35:00;99753.63;;;23.15;38.72
39267;BME280;24967;51.154;13.812;2022-09-02T13:37:29;99747.75;;;23.00;37.53
39267;BME280;24967;51.154;13.812;2022-09-02T13:39:57;99752.78;;;23.15;38.41
39267;BME280;24967;51.154;13.812;2022-09-02T13:42:25;99745.94;;;23.12;38.25
39267;BME280;24967;51.154;13.812;2022-09-02T13:45:07;99754.00;;;23.19;37.76
39267;BME280;24967;51.154;13.812;2022-09-02T13:47:34;99745.34;;;23.10;37.44
39267;BME280;24967;51.154;13.812;2022-09-02T13:50:04;99746.81;;;22.88;38.03
39267;BME280;24967;51.154;13.812;2022-09-02T13:52:31;99747.94;;;22.61;37.70
39267;BME280;24967;51.154;13.812;2022-09-02T13:54:58;99748.06;;;22.48;39.03
39267;BME280;24967;51.154;13.812;2022-09-02T13:57:26;99752.16;;;22.32;38.61
39267;BME280;24967;51.154;13.812;2022-09-02T13:59:55;99743.97;;;22.39;38.80
39267;BME280;24967;51.154;13.812;2022-09-02T14:02:25;99742.84;;;22.28;38.80
39267;BME280;24967;51.154;13.812;2022-09-02T14:04:55;99738.16;;;22.10;38.65
39267;BME280;24967;51.154;13.812;2022-09-02T14:07:29;99736.00;;;21.94;38.92
39267;BME280;24967;51.154;13.812;2022-09-02T14:09:58;99741.63;;;21.92;39.71
39267;BME280;24967;51.154;13.812;2022-09-02T14:12:27;99735.66;;;21.84;39.85
39267;BME280;24967;51.154;13.812;2022-09-02T14:14:57;99742.94;;;21.83;40.25
39267;BME280;24967;51.154;13.812;2022-09-02T14:17:25;99739.59;;;21.88;41.13
39267;BME280;24967;51.154;13.812;2022-09-02T14:20:07;99733.88;;;21.71;40.73
39267;BME280;24967;51.154;13.812;2022-09-02T14:22:35;99737.28;;;21.91;41.17
39267;BME280;24967;51.154;13.812;2022-09-02T14:25:11;99732.94;;;21.84;41.11
39267;BME280;24967;51.154;13.812;2022-09-02T14:27:38;99724.94;;;21.70;41.75
39267;BME280;24967;51.154;13.812;2022-09-02T14:30:06;99725.88;;;21.83;40.87
39267;BME280;24967;51.154;13.812;2022-09-02T14:32:34;99718.34;;;21.60;41.44
39267;BME280;24967;51.154;13.812;2022-09-02T14:35:17;99724.31;;;21.68;41.46
39267;BME280;24967;51.154;13.812;2022-09-02T14:37:50;99722.63;;;21.74;42.36
39267;BME280;24967;51.154;13.812;2022-09-02T14:40:30;99716.88;;;21.64;41.98
39267;BME280;24967;51.154;13.812;2022-09-02T14:42:56;99719.53;;;21.70;40.85
39267;BME280;24967;51.154;13.812;2022-09-02T14:45:25;99727.06;;;21.62;40.77
39267;BME280;24967;51.154;13.812;2022-09-02T14:47:52;99728.56;;;21.51;41.20
39267;BME280;24967;51.154;13.812;2022-09-02T14:50:21;99723.31;;;21.63;41.37
39267;BME280;24967;51.154;13.812;2022-09-02T14:52:53;99727.28;;;21.60;40.58
39267;BME280;24967;51.154;13.812;2022-09-02T14:55:45;99720.16;;;21.66;40.83
39267;BME280;24967;51.154;13.812;2022-09-02T14:58:15;99720.09;;;21.79;41.30
39267;BME280;24967;51.154;13.812;2022-09-02T15:00:43;99709.22;;;21.86;41.08
39267;BME280;24967;51.154;13.812;2022-09-02T15:03:13;99712.75;;;21.86;41.42
39267;BME280;24967;51.154;13.812;2022-09-02T15:05:40;99710.66;;;21.88;42.23
39267;BME280;24967;51.154;13.812;2022-09-02T15:08:07;99712.47;;;21.69;41.96